Time;durP1;ratioP1;P1;durP2;ratioP2;P2;SDS_P1;SDS_P2;PMS_P1;PMS_P2;Temp;Humidity;BMP_temperature;BMP_pressure;BME280_temperature;BME280_humidity;BME280_pressure;Samples;Min_cycle;Max_cycle;Signal;HPM_P1;HPM_P2
2022/10/18 00:02:03;;;;;;;35.53;13.07;;;16.20;99.90;;;;;;4998957;28;20538;-76
2022/10/18 00:04:30;;;;;;;27.35;10.50;;;16.20;99.90;;;;;;5027750;28;20049;-78
2022/10/18 00:06:56;;;;;;;13.10;8.80;;;16.20;99.90;;;;;;5026886;28;20045;-78
2022/10/18 00:09:23;;;;;;;18.75;8.90;;;16.20;99.90;;;;;;5027841;28;20380;-78
2022/10/18 00:11:50;;;;;;;22.23;9.00;;;16.20;99.90;;;;;;5030750;28;20056;-77
2022/10/18 00:14:16;;;;;;;21.65;9.57;;;16.20;99.90;;;;;;5028937;28;20053;-75
2022/10/18 00:16:43;;;;;;;37.42;10.25;;;16.20;99.90;;;;;;5010241;28;20064;-78
2022/10/18 00:19:09;;;;;;;31.33;9.05;;;16.20;99.90;;;;;;5026689;28;20029;-79
2022/10/18 00:21:35;;;;;;;12.95;8.50;;;16.20;99.90;;;;;;5030652;28;20033;-76
2022/10/18 00:24:02;;;;;;;44.38;9.32;;;16.20;99.90;;;;;;5031087;28;20096;-78
2022/10/18 00:26:29;;;;;;;53.70;13.45;;;16.20;99.90;;;;;;5025948;28;20403;-77
2022/10/18 00:28:58;;;;;;;12.55;9.68;;;16.20;99.90;;;;;;5009886;28;20053;-78
2022/10/18 00:31:30;;;;;;;13.43;8.57;;;16.20;99.90;;;;;;5036746;28;20048;-79
2022/10/18 00:33:59;;;;;;;28.98;10.88;;;16.20;99.90;;;;;;5028357;28;20040;-78
2022/10/18 00:36:27;;;;;;;22.60;10.38;;;16.20;99.90;;;;;;5026344;28;20029;-78
2022/10/18 00:38:54;;;;;;;15.65;9.10;;;16.10;99.90;;;;;;5026777;28;20036;-79
2022/10/18 00:41:24;;;;;;;22.33;10.00;;;16.20;99.90;;;;;;5030873;28;20531;-79
2022/10/18 00:44:01;;;;;;;27.45;10.02;;;16.20;99.90;;;;;;5028784;28;20484;-80
2022/10/18 00:46:31;;;;;;;23.55;9.90;;;16.20;99.90;;;;;;5007459;28;20436;-76
2022/10/18 00:49:00;;;;;;;29.15;12.02;;;16.20;99.90;;;;;;5026747;28;20389;-79
2022/10/18 00:51:33;;;;;;;35.90;11.02;;;16.20;99.90;;;;;;5013718;28;20488;-79
2022/10/18 00:54:00;;;;;;;14.57;8.30;;;16.20;99.90;;;;;;5029369;28;20037;-79
2022/10/18 00:56:26;;;;;;;35.42;12.15;;;16.20;99.90;;;;;;5024177;28;20041;-80
2022/10/18 00:58:53;;;;;;;29.85;11.27;;;16.20;99.90;;;;;;5028957;28;20044;-75
2022/10/18 01:01:19;;;;;;;27.23;15.30;;;16.20;99.90;;;;;;5027609;28;20495;-77
2022/10/18 01:03:46;;;;;;;16.00;11.55;;;16.10;99.90;;;;;;5029545;28;20032;-74
2022/10/18 01:06:12;;;;;;;21.58;11.88;;;16.10;99.90;;;;;;5023444;28;20416;-78
2022/10/18 01:09:00;;;;;;;20.95;11.57;;;16.10;99.90;;;;;;5029068;28;20041;-79
2022/10/18 01:11:52;;;;;;;14.77;10.52;;;16.10;99.90;;;;;;5013600;28;20041;-78
2022/10/18 01:14:28;;;;;;;18.48;9.02;;;16.10;99.90;;;;;;5027097;28;20057;-73
2022/10/18 01:17:19;;;;;;;17.92;11.38;;;16.10;99.90;;;;;;5028236;28;20048;-78
2022/10/18 01:20:04;;;;;;;13.27;10.05;;;16.10;99.90;;;;;;5029330;28;20065;-75
2022/10/18 01:22:43;;;;;;;14.35;11.73;;;16.00;99.90;;;;;;5030366;28;20036;-78
2022/10/18 01:25:35;;;;;;;18.67;11.60;;;16.00;99.90;;;;;;5024589;28;20048;-79
2022/10/18 01:28:26;;;;;;;15.32;10.75;;;15.90;99.90;;;;;;5010055;28;20053;-79
2022/10/18 01:30:56;;;;;;;15.75;10.88;;;15.80;99.90;;;;;;5023879;28;20042;-78
2022/10/18 01:33:49;;;;;;;14.18;10.48;;;15.80;99.90;;;;;;5032084;28;20041;-79
2022/10/18 01:36:33;;;;;;;14.60;10.45;;;15.80;99.90;;;;;;5041534;28;20025;-79
2022/10/18 01:39:04;;;;;;;13.98;10.05;;;15.80;99.90;;;;;;5027220;28;20030;-79
2022/10/18 01:41:33;;;;;;;16.23;12.32;;;15.80;99.90;;;;;;5031817;28;20030;-74
2022/10/18 01:44:01;;;;;;;17.92;11.38;;;15.80;99.90;;;;;;5027403;28;20034;-79
2022/10/18 01:46:29;;;;;;;17.42;10.77;;;15.80;99.90;;;;;;4991959;28;20041;-77
2022/10/18 01:48:56;;;;;;;12.80;10.38;;;15.70;99.90;;;;;;5028086;28;20045;-80
2022/10/18 01:51:28;;;;;;;17.10;12.63;;;15.80;99.90;;;;;;5028835;28;20037;-77
2022/10/18 01:53:55;;;;;;;19.55;13.13;;;15.80;99.90;;;;;;5010263;28;20041;-79
2022/10/18 01:56:30;;;;;;;21.20;13.68;;;15.80;99.90;;;;;;5025085;28;20048;-78
2022/10/18 01:59:25;;;;;;;20.23;14.50;;;15.80;99.90;;;;;;5027483;28;20033;-80
2022/10/18 02:02:15;;;;;;;19.02;14.50;;;15.80;99.90;;;;;;5032482;28;20388;-75
2022/10/18 02:04:59;;;;;;;20.13;14.07;;;15.70;99.90;;;;;;5025684;28;20037;-79
2022/10/18 02:07:36;;;;;;;25.35;16.00;;;15.70;99.90;;;;;;5028760;28;20071;-79
2022/10/18 02:10:28;;;;;;;20.63;14.77;;;15.70;99.90;;;;;;5027709;28;20029;-79
2022/10/18 02:12:56;;;;;;;15.05;11.30;;;15.60;99.90;;;;;;5033115;28;20038;-79
2022/10/18 02:15:28;;;;;;;21.20;15.15;;;15.60;99.90;;;;;;5021380;28;20064;-78
2022/10/18 02:17:55;;;;;;;24.45;14.18;;;15.60;99.90;;;;;;5027896;28;20036;-75
2022/10/18 02:20:24;;;;;;;21.23;14.25;;;15.60;99.90;;;;;;5026731;28;20041;-79
2022/10/18 02:22:54;;;;;;;28.65;19.02;;;15.60;99.90;;;;;;5031994;28;20049;-81
2022/10/18 02:25:24;;;;;;;28.75;18.95;;;15.50;99.90;;;;;;5025377;28;20036;-75
2022/10/18 02:27:54;;;;;;;23.67;15.20;;;15.50;99.90;;;;;;5010650;28;20040;-79
2022/10/18 02:30:25;;;;;;;21.90;14.98;;;15.50;99.90;;;;;;5026315;28;20046;-77
2022/10/18 02:33:08;;;;;;;21.90;14.43;;;15.50;99.90;;;;;;5037197;28;20392;-75
2022/10/18 02:35:39;;;;;;;18.13;12.93;;;15.40;99.90;;;;;;5024625;28;20028;-79
2022/10/18 02:38:08;;;;;;;18.33;11.70;;;15.40;99.90;;;;;;5023949;28;20040;-79
2022/10/18 02:40:35;;;;;;;18.45;13.65;;;15.40;99.90;;;;;;5025371;28;20041;-78
2022/10/18 02:43:01;;;;;;;17.83;12.63;;;15.40;99.90;;;;;;5033358;28;20037;-78
2022/10/18 02:45:27;;;;;;;23.75;15.65;;;15.30;99.90;;;;;;5021155;28;20049;-76
2022/10/18 02:47:54;;;;;;;16.88;13.25;;;15.30;99.90;;;;;;5026243;28;20034;-78
2022/10/18 02:50:20;;;;;;;22.55;16.55;;;15.40;99.90;;;;;;5030152;28;20475;-76
2022/10/18 02:52:46;;;;;;;18.73;13.93;;;15.30;99.90;;;;;;5019995;28;20506;-78
2022/10/18 02:55:12;;;;;;;22.05;13.52;;;15.30;99.90;;;;;;5005346;28;20167;-77
2022/10/18 02:57:39;;;;;;;17.52;12.68;;;15.30;99.90;;;;;;5027057;28;20032;-77
2022/10/18 03:00:05;;;;;;;21.67;16.13;;;15.30;99.90;;;;;;5028744;28;20022;-78
2022/10/18 03:02:32;;;;;;;55.60;23.85;;;15.30;99.90;;;;;;5030607;28;20045;-79
2022/10/18 03:04:58;;;;;;;20.00;14.25;;;15.30;99.90;;;;;;5026649;28;20033;-77
2022/10/18 03:07:24;;;;;;;19.80;14.38;;;15.30;99.90;;;;;;5027943;28;20377;-77
2022/10/18 03:09:50;;;;;;;27.25;14.90;;;15.30;99.90;;;;;;5028782;28;20026;-78
2022/10/18 03:12:17;;;;;;;20.45;13.77;;;15.30;99.90;;;;;;5029008;28;20045;-78
2022/10/18 03:14:43;;;;;;;17.50;12.00;;;15.30;99.90;;;;;;5007514;28;20058;-78
2022/10/18 03:17:09;;;;;;;17.55;11.95;;;15.20;99.90;;;;;;5027081;28;20037;-78
2022/10/18 03:19:37;;;;;;;17.25;11.75;;;15.20;99.90;;;;;;5029097;28;20480;-78
2022/10/18 03:22:04;;;;;;;17.08;11.65;;;15.20;99.90;;;;;;5015546;28;20040;-77
2022/10/18 03:24:30;;;;;;;18.50;13.93;;;15.20;99.90;;;;;;5010983;28;20040;-78
2022/10/18 03:26:57;;;;;;;18.15;13.20;;;15.10;99.90;;;;;;5011715;28;20056;-77
2022/10/18 03:29:23;;;;;;;18.23;13.48;;;15.10;99.90;;;;;;5029266;28;20044;-79
2022/10/18 03:31:49;;;;;;;18.63;12.75;;;15.10;99.90;;;;;;5030671;28;20044;-78
2022/10/18 03:34:16;;;;;;;17.17;12.18;;;15.10;99.90;;;;;;5014359;28;20038;-76
2022/10/18 03:36:43;;;;;;;15.70;11.05;;;15.00;99.90;;;;;;5014548;28;20037;-79
2022/10/18 03:39:11;;;;;;;16.60;12.15;;;15.00;99.90;;;;;;5032631;28;20017;-78
2022/10/18 03:41:37;;;;;;;18.10;12.82;;;15.00;99.90;;;;;;5032301;28;20401;-77
2022/10/18 03:44:04;;;;;;;17.17;12.50;;;15.00;99.90;;;;;;5030266;28;20396;-78
2022/10/18 03:46:30;;;;;;;15.23;11.60;;;15.00;99.90;;;;;;5012607;28;20378;-78
2022/10/18 03:48:56;;;;;;;16.90;11.48;;;15.00;99.90;;;;;;5030240;28;20044;-77
2022/10/18 03:51:22;;;;;;;15.50;10.43;;;15.00;99.90;;;;;;5034939;28;20440;-78
2022/10/18 03:53:49;;;;;;;14.73;10.23;;;14.90;99.90;;;;;;5033174;28;20033;-74
2022/10/18 03:56:15;;;;;;;12.15;9.05;;;14.90;99.90;;;;;;5027899;28;20033;-74
2022/10/18 03:58:41;;;;;;;12.52;9.93;;;14.90;99.90;;;;;;5011692;28;20041;-79
2022/10/18 04:01:07;;;;;;;11.77;8.82;;;14.90;99.90;;;;;;5030177;28;20029;-78
2022/10/18 04:03:34;;;;;;;12.20;8.75;;;14.90;99.90;;;;;;5034552;28;20041;-79
2022/10/18 04:06:02;;;;;;;13.32;10.10;;;14.90;99.90;;;;;;5027595;28;20037;-79
2022/10/18 04:08:29;;;;;;;12.75;9.80;;;14.90;99.90;;;;;;5012812;28;20057;-78
2022/10/18 04:10:56;;;;;;;12.70;9.25;;;14.90;99.90;;;;;;5033218;28;20025;-80
2022/10/18 04:13:22;;;;;;;13.00;9.98;;;14.90;99.90;;;;;;5033702;28;20053;-79
2022/10/18 04:15:48;;;;;;;12.45;9.82;;;14.90;99.90;;;;;;5023166;28;20068;-78
2022/10/18 04:18:15;;;;;;;11.73;10.40;;;14.90;99.90;;;;;;5027884;28;20040;-78
2022/10/18 04:20:41;;;;;;;12.65;9.73;;;14.90;99.90;;;;;;5030558;28;20048;-79
2022/10/18 04:23:07;;;;;;;13.73;10.07;;;14.90;99.90;;;;;;5018661;28;20816;-78
2022/10/18 04:25:33;;;;;;;16.35;11.52;;;14.90;99.90;;;;;;5025665;28;20037;-75
2022/10/18 04:27:59;;;;;;;15.38;11.10;;;14.90;99.90;;;;;;5030763;28;20041;-78
2022/10/18 04:30:26;;;;;;;14.38;11.70;;;14.90;99.90;;;;;;5028224;28;20041;-78
2022/10/18 04:32:52;;;;;;;14.15;10.70;;;14.90;99.90;;;;;;5030340;28;20040;-79
2022/10/18 04:35:21;;;;;;;13.50;10.27;;;14.90;99.90;;;;;;5026285;28;20033;-77
2022/10/18 04:37:47;;;;;;;12.43;9.05;;;14.80;99.90;;;;;;5030786;28;20040;-78
2022/10/18 04:40:13;;;;;;;15.65;12.32;;;14.80;99.90;;;;;;5029871;28;20056;-77
2022/10/18 04:42:40;;;;;;;11.68;9.60;;;14.80;99.90;;;;;;5036874;28;20029;-79
2022/10/18 04:45:06;;;;;;;20.15;15.10;;;14.80;99.90;;;;;;5008135;28;20036;-80
2022/10/18 04:47:33;;;;;;;16.45;12.85;;;14.80;99.90;;;;;;5029921;28;20057;-79
2022/10/18 04:49:59;;;;;;;16.05;11.70;;;14.70;99.90;;;;;;5028470;28;20037;-78
2022/10/18 04:52:25;;;;;;;17.15;11.82;;;14.70;99.90;;;;;;5031655;28;20476;-79
2022/10/18 04:54:51;;;;;;;16.13;12.80;;;14.70;99.90;;;;;;5025373;28;20606;-77
2022/10/18 04:57:18;;;;;;;14.57;10.95;;;14.60;99.90;;;;;;5028374;28;20037;-76
2022/10/18 04:59:44;;;;;;;17.85;14.30;;;14.70;99.90;;;;;;5026026;28;20032;-79
2022/10/18 05:02:10;;;;;;;16.08;12.45;;;14.60;99.90;;;;;;5011706;28;20044;-78
2022/10/18 05:04:36;;;;;;;23.80;15.75;;;14.60;99.90;;;;;;5020750;28;20041;-77
2022/10/18 05:07:05;;;;;;;14.25;10.88;;;14.60;99.90;;;;;;5022311;28;20044;-77
2022/10/18 05:09:32;;;;;;;20.23;13.18;;;14.60;99.90;;;;;;5021779;28;20040;-76
2022/10/18 05:11:58;;;;;;;14.80;11.70;;;14.60;99.90;;;;;;5025926;28;20603;-77
2022/10/18 05:14:24;;;;;;;14.55;11.85;;;14.50;99.90;;;;;;5019872;28;20423;-75
2022/10/18 05:16:50;;;;;;;16.50;11.63;;;14.50;99.90;;;;;;5023505;28;20037;-78
2022/10/18 05:19:17;;;;;;;15.82;10.82;;;14.50;99.90;;;;;;5019801;28;20065;-76
2022/10/18 05:21:43;;;;;;;15.27;11.07;;;14.50;99.90;;;;;;5027653;28;20029;-78
2022/10/18 05:24:11;;;;;;;12.75;9.88;;;14.50;99.90;;;;;;5026487;28;20041;-76
2022/10/18 05:26:37;;;;;;;14.35;11.00;;;14.40;99.90;;;;;;5021378;28;20048;-76
2022/10/18 05:29:03;;;;;;;17.70;11.15;;;14.40;99.90;;;;;;5029349;28;20034;-73
2022/10/18 05:31:29;;;;;;;15.48;11.07;;;14.30;99.90;;;;;;5022761;28;20636;-78
2022/10/18 05:33:56;;;;;;;11.00;9.60;;;14.30;99.90;;;;;;5026782;28;20594;-77
2022/10/18 05:36:24;;;;;;;13.88;8.82;;;14.20;99.90;;;;;;5020296;28;20032;-77
2022/10/18 05:38:51;;;;;;;14.15;9.05;;;14.20;99.90;;;;;;5028438;28;20476;-76
2022/10/18 05:41:18;;;;;;;10.00;8.50;;;14.10;99.90;;;;;;5008779;28;20037;-78
2022/10/18 05:43:44;;;;;;;12.35;9.55;;;14.10;99.90;;;;;;5033588;28;20029;-81
2022/10/18 05:46:11;;;;;;;11.45;9.27;;;14.10;99.90;;;;;;5022236;28;20121;-78
2022/10/18 05:48:38;;;;;;;15.43;8.70;;;14.00;99.90;;;;;;5030782;28;20454;-74
2022/10/18 05:51:04;;;;;;;16.45;11.60;;;14.00;99.90;;;;;;5025899;28;20496;-78
2022/10/18 05:53:31;;;;;;;16.42;11.00;;;14.10;99.90;;;;;;5011304;28;20041;-78
2022/10/18 05:56:01;;;;;;;21.00;10.50;;;14.10;99.90;;;;;;5022465;28;20026;-77
2022/10/18 05:58:27;;;;;;;96.63;15.48;;;14.10;99.90;;;;;;5025202;28;20033;-77
2022/10/18 06:00:53;;;;;;;28.08;9.90;;;14.20;99.90;;;;;;5023927;28;20033;-77
2022/10/18 06:03:19;;;;;;;18.30;10.68;;;14.20;99.90;;;;;;5029744;28;20033;-76
2022/10/18 06:05:46;;;;;;;26.95;10.65;;;14.20;99.90;;;;;;5019168;28;20037;-78
2022/10/18 06:08:12;;;;;;;27.15;10.90;;;14.20;99.90;;;;;;5027376;28;20064;-73
2022/10/18 06:10:39;;;;;;;21.00;8.50;;;14.30;99.90;;;;;;5026259;28;20037;-74
2022/10/18 06:13:05;;;;;;;27.48;9.93;;;14.20;99.90;;;;;;5007862;28;20377;-82
2022/10/18 06:15:31;;;;;;;18.23;9.50;;;14.20;99.90;;;;;;5022722;28;20057;-77
2022/10/18 06:17:58;;;;;;;11.10;7.85;;;14.20;99.90;;;;;;5026733;28;20064;-77
2022/10/18 06:20:24;;;;;;;13.15;6.55;;;14.20;99.90;;;;;;5021886;28;20042;-76
2022/10/18 06:22:53;;;;;;;8.88;6.85;;;14.20;99.90;;;;;;5012084;28;20037;-76
2022/10/18 06:25:19;;;;;;;10.82;5.97;;;14.20;99.90;;;;;;5018901;28;20041;-77
2022/10/18 06:27:46;;;;;;;8.73;4.45;;;14.20;99.90;;;;;;5025247;28;20044;-78
2022/10/18 06:30:12;;;;;;;10.25;5.03;;;14.10;99.90;;;;;;5030632;28;20670;-78
2022/10/18 06:32:38;;;;;;;11.05;5.40;;;14.10;99.90;;;;;;5033363;28;20044;-76
2022/10/18 06:35:05;;;;;;;9.13;5.47;;;14.10;99.90;;;;;;5023214;28;20037;-76
2022/10/18 06:37:33;;;;;;;11.52;5.90;;;14.10;99.90;;;;;;5025835;28;20029;-78
2022/10/18 06:40:00;;;;;;;5.60;5.10;;;14.10;99.90;;;;;;5022337;28;20084;-75
2022/10/18 06:42:26;;;;;;;25.52;7.60;;;14.10;99.90;;;;;;5032411;28;20029;-79
2022/10/18 06:44:54;;;;;;;18.05;5.82;;;14.10;99.90;;;;;;5008177;28;20499;-78
2022/10/18 06:47:20;;;;;;;17.52;6.78;;;14.10;99.90;;;;;;5024791;28;20042;-74
2022/10/18 06:49:46;;;;;;;14.25;5.28;;;14.10;99.90;;;;;;5029532;28;20053;-76
2022/10/18 06:52:12;;;;;;;11.90;6.50;;;14.00;99.90;;;;;;5024292;28;20030;-78
2022/10/18 06:54:39;;;;;;;12.00;5.78;;;14.00;99.90;;;;;;5021465;28;20038;-77
2022/10/18 06:57:05;;;;;;;13.23;5.47;;;14.00;99.90;;;;;;5028965;28;20029;-76
2022/10/18 06:59:31;;;;;;;17.63;7.15;;;14.00;99.90;;;;;;5022590;28;20042;-78
2022/10/18 07:01:57;;;;;;;14.13;6.28;;;14.00;99.90;;;;;;5014930;28;20025;-78
2022/10/18 07:04:28;;;;;;;14.48;7.85;;;13.90;99.90;;;;;;5025508;28;20167;-74
2022/10/18 07:06:54;;;;;;;14.05;7.82;;;13.90;99.90;;;;;;5034852;28;20440;-78
2022/10/18 07:09:20;;;;;;;13.75;9.77;;;13.80;99.90;;;;;;5027108;28;20400;-76
2022/10/18 07:11:47;;;;;;;23.77;11.00;;;13.80;99.90;;;;;;5022815;28;20036;-76
2022/10/18 07:14:13;;;;;;;19.80;9.77;;;13.70;99.90;;;;;;5020666;28;20053;-77
2022/10/18 07:16:40;;;;;;;25.10;10.93;;;13.70;99.90;;;;;;5037248;28;20494;-77
2022/10/18 07:19:06;;;;;;;11.93;9.60;;;13.70;99.90;;;;;;5012208;28;20424;-81
2022/10/18 07:21:32;;;;;;;16.35;9.90;;;13.70;99.90;;;;;;5022827;28;20029;-77
2022/10/18 07:23:58;;;;;;;12.45;8.75;;;13.70;99.90;;;;;;5024942;28;20496;-77
2022/10/18 07:26:30;;;;;;;27.23;10.45;;;13.80;99.90;;;;;;5024962;28;20050;-79
2022/10/18 07:29:00;;;;;;;14.40;10.25;;;13.80;99.90;;;;;;5029475;28;20049;-78
2022/10/18 07:31:27;;;;;;;12.90;9.50;;;13.80;99.90;;;;;;5029542;28;20420;-77
2022/10/18 07:33:53;;;;;;;9.90;7.53;;;13.80;99.90;;;;;;5031209;28;20060;-77
2022/10/18 07:36:20;;;;;;;12.35;8.38;;;13.90;99.90;;;;;;5011317;28;20028;-79
2022/10/18 07:38:48;;;;;;;11.00;9.40;;;13.90;99.90;;;;;;5027693;28;20025;-78
2022/10/18 07:41:14;;;;;;;12.32;9.48;;;13.90;99.90;;;;;;5022789;28;20045;-77
2022/10/18 07:43:43;;;;;;;16.48;9.43;;;13.90;99.90;;;;;;5028417;28;20143;-75
2022/10/18 07:46:09;;;;;;;11.32;8.95;;;14.00;99.90;;;;;;5016266;28;20025;-74
2022/10/18 07:48:35;;;;;;;17.25;11.93;;;13.90;99.90;;;;;;5022624;28;20034;-77
2022/10/18 07:51:03;;;;;;;11.98;8.32;;;14.00;99.90;;;;;;5036959;28;20036;-75
2022/10/18 07:53:30;;;;;;;13.07;9.13;;;14.00;99.90;;;;;;5019094;28;20528;-75
2022/10/18 07:56:19;;;;;;;16.00;9.10;;;14.00;99.90;;;;;;5021509;28;20413;-75
2022/10/18 07:58:50;;;;;;;12.77;7.75;;;14.00;99.90;;;;;;5024511;28;20033;-74
2022/10/18 08:01:16;;;;;;;11.07;8.00;;;14.00;99.90;;;;;;5023124;28;20404;-74
2022/10/18 08:03:43;;;;;;;13.80;8.13;;;14.00;99.90;;;;;;5034475;28;20416;-76
2022/10/18 08:06:11;;;;;;;8.38;6.05;;;14.00;99.90;;;;;;5005915;28;20594;-75
2022/10/18 08:08:38;;;;;;;8.05;5.60;;;14.00;99.90;;;;;;5032931;28;20038;-76
2022/10/18 08:11:11;;;;;;;13.70;9.20;;;14.10;99.90;;;;;;5023687;28;20038;-76
2022/10/18 08:13:38;;;;;;;10.18;7.95;;;14.00;99.90;;;;;;5006220;28;20037;-76
2022/10/18 08:16:07;;;;;;;13.13;10.38;;;14.10;99.90;;;;;;5016244;28;20034;-78
2022/10/18 08:18:34;;;;;;;20.70;14.52;;;14.10;99.90;;;;;;5012323;28;20036;-79
2022/10/18 08:21:03;;;;;;;12.43;9.52;;;14.10;99.90;;;;;;5026052;28;20029;-77
2022/10/18 08:23:29;;;;;;;11.70;8.38;;;14.10;99.90;;;;;;5019816;28;20032;-75
2022/10/18 08:25:55;;;;;;;16.30;10.88;;;14.20;99.90;;;;;;5016412;28;20045;-76
2022/10/18 08:28:22;;;;;;;10.95;7.55;;;14.20;99.90;;;;;;5022222;28;20041;-76
2022/10/18 08:30:48;;;;;;;13.00;9.05;;;14.30;99.90;;;;;;5023602;28;20245;-79
2022/10/18 08:33:14;;;;;;;16.77;9.50;;;14.30;99.90;;;;;;5026203;28;20048;-78
2022/10/18 08:35:40;;;;;;;11.88;8.25;;;14.40;99.90;;;;;;5025321;28;20025;-76
2022/10/18 08:38:10;;;;;;;11.90;7.40;;;14.40;99.90;;;;;;5010824;28;20037;-77
2022/10/18 08:40:42;;;;;;;15.95;8.30;;;14.50;99.90;;;;;;5030261;28;20033;-80
2022/10/18 08:43:24;;;;;;;12.20;6.63;;;14.50;99.90;;;;;;5027301;28;20036;-79
2022/10/18 08:45:53;;;;;;;12.65;7.82;;;14.50;99.90;;;;;;5025275;28;20030;-77
2022/10/18 08:48:24;;;;;;;8.80;5.80;;;14.60;99.90;;;;;;5024374;28;20042;-80
2022/10/18 08:50:55;;;;;;;10.95;7.80;;;14.60;99.90;;;;;;5013504;28;20036;-81
2022/10/18 08:53:50;;;;;;;9.90;5.65;;;14.60;99.90;;;;;;5029399;28;20416;-79
2022/10/18 08:56:20;;;;;;;8.85;5.57;;;14.70;99.90;;;;;;5023125;28;20037;-76
2022/10/18 08:58:46;;;;;;;11.25;5.68;;;14.80;99.90;;;;;;5000521;28;20036;-76
2022/10/18 09:01:20;;;;;;;10.68;4.90;;;14.80;99.90;;;;;;5007973;28;21293;-77
2022/10/18 09:04:24;;;;;;;7.47;3.40;;;14.80;99.90;;;;;;5019315;28;20507;-75
2022/10/18 09:07:25;;;;;;;8.35;3.45;;;14.90;99.90;;;;;;5023714;28;20029;-79
2022/10/18 09:10:17;;;;;;;5.25;2.00;;;14.90;99.90;;;;;;5024326;28;20065;-76
2022/10/18 09:13:03;;;;;;;6.10;3.35;;;15.00;99.90;;;;;;5041475;28;20041;-74
2022/10/18 09:15:50;;;;;;;6.07;3.90;;;15.00;99.90;;;;;;5018553;28;20065;-77
2022/10/18 09:19:08;;;;;;;9.02;3.13;;;15.10;99.90;;;;;;5034793;28;20056;-76
2022/10/18 09:21:57;;;;;;;5.97;2.25;;;15.10;99.90;;;;;;4971118;28;20560;-77
2022/10/18 09:24:39;;;;;;;10.45;3.47;;;15.20;99.90;;;;;;5021575;28;20526;-73
2022/10/18 09:27:17;;;;;;;8.02;2.80;;;15.30;99.90;;;;;;5024281;28;20041;-79
2022/10/18 09:30:02;;;;;;;3.78;1.80;;;15.30;99.90;;;;;;5023034;28;20029;-74
2022/10/18 09:32:37;;;;;;;6.38;1.45;;;15.40;99.90;;;;;;5027254;28;20033;-76
2022/10/18 09:35:15;;;;;;;4.22;1.25;;;15.50;99.90;;;;;;5024511;28;20030;-76
2022/10/18 09:37:42;;;;;;;6.30;1.45;;;15.50;99.90;;;;;;5030171;28;20397;-77
2022/10/18 09:40:24;;;;;;;6.25;1.15;;;15.50;99.90;;;;;;5026746;28;20388;-77
2022/10/18 09:42:51;;;;;;;3.22;0.70;;;15.50;99.90;;;;;;5029220;28;20404;-78
2022/10/18 09:45:44;;;;;;;4.25;0.80;;;15.60;99.90;;;;;;5020311;28;20528;-76
2022/10/18 09:48:17;;;;;;;4.43;1.52;;;15.70;99.90;;;;;;5023421;28;20049;-78
2022/10/18 09:50:45;;;;;;;;;;;15.90;99.90;;;;;;5027387;28;20041;-78
2022/10/18 09:53:35;;;;;;;9.85;1.63;;;16.20;99.90;;;;;;5025495;28;20290;-77
2022/10/18 09:56:25;;;;;;;2.28;0.90;;;16.50;99.90;;;;;;5032492;28;20030;-75
2022/10/18 09:58:51;;;;;;;4.15;0.68;;;16.80;99.90;;;;;;5024113;28;20535;-76
2022/10/18 10:01:25;;;;;;;6.50;0.88;;;17.20;99.90;;;;;;5021963;28;20041;-77
2022/10/18 10:03:52;;;;;;;2.15;1.00;;;17.50;99.90;;;;;;5022289;28;20472;-76
2022/10/18 10:06:28;;;;;;;4.63;1.40;;;17.80;99.90;;;;;;5017970;28;20056;-76
2022/10/18 10:08:57;;;;;;;4.00;1.25;;;18.10;99.90;;;;;;5021764;28;20022;-77
2022/10/18 10:11:37;;;;;;;4.22;0.88;;;18.30;99.90;;;;;;5027176;28;20342;-77
2022/10/18 10:14:18;;;;;;;3.88;0.70;;;18.60;99.90;;;;;;5020349;28;20535;-73
2022/10/18 10:17:04;;;;;;;3.20;0.68;;;19.00;99.90;;;;;;5017425;28;20034;-75
2022/10/18 10:19:55;;;;;;;4.60;0.80;;;19.20;99.90;;;;;;5033126;28;20030;-73
2022/10/18 10:22:38;;;;;;;4.00;0.52;;;19.50;99.90;;;;;;5022187;28;20037;-75
2022/10/18 10:25:06;;;;;;;4.95;1.40;;;19.80;99.90;;;;;;5019835;28;20480;-76
2022/10/18 10:27:42;;;;;;;7.72;3.10;;;20.20;99.90;;;;;;5008872;28;20029;-76
2022/10/18 10:30:22;;;;;;;5.20;0.80;;;20.50;99.90;;;;;;5009786;28;20381;-79
2022/10/18 10:32:50;;;;;;;3.83;1.15;;;20.80;99.90;;;;;;5026500;28;20041;-74
2022/10/18 10:35:40;;;;;;;4.13;0.75;;;21.10;99.90;;;;;;5023189;28;20395;-74
2022/10/18 10:38:22;;;;;;;5.10;1.35;;;21.40;99.90;;;;;;5026780;28;20037;-76
2022/10/18 10:40:49;;;;;;;4.30;0.60;;;21.60;99.90;;;;;;5030846;28;20034;-75
2022/10/18 10:43:21;;;;;;;5.47;2.03;;;21.80;99.90;;;;;;5025618;28;20364;-75
2022/10/18 10:45:56;;;;;;;4.20;1.10;;;22.00;99.90;;;;;;5020849;28;20628;-75
2022/10/18 10:48:24;;;;;;;7.75;3.15;;;22.10;99.90;;;;;;5010513;28;20041;-75
2022/10/18 10:50:52;;;;;;;3.45;0.60;;;22.20;99.90;;;;;;5025209;28;20029;-76
2022/10/18 10:53:33;;;;;;;1.80;0.70;;;22.10;99.90;;;;;;5027779;28;20048;-76
2022/10/18 10:56:00;;;;;;;3.65;1.10;;;22.00;99.90;;;;;;5041220;28;20531;-76
2022/10/18 10:58:32;;;;;;;4.15;1.30;;;21.60;99.90;;;;;;5030306;28;20029;-76
2022/10/18 11:01:20;;;;;;;5.40;0.80;;;21.00;99.90;;;;;;5031648;28;20511;-78
2022/10/18 11:03:48;;;;;;;4.03;0.55;;;20.40;99.90;;;;;;5030166;28;20499;-76
2022/10/18 11:06:39;;;;;;;2.97;0.40;;;19.70;99.90;;;;;;5029820;28;20037;-75
2022/10/18 11:09:18;;;;;;;3.63;0.50;;;19.30;99.90;;;;;;5030187;28;20583;-74
2022/10/18 11:11:57;;;;;;;2.20;0.60;;;18.90;99.90;;;;;;5031632;28;20021;-77
2022/10/18 11:14:28;;;;;;;4.97;1.25;;;18.70;99.90;;;;;;5010871;28;20060;-74
2022/10/18 11:17:13;;;;;;;3.67;1.10;;;18.40;99.90;;;;;;5031610;28;20032;-77
2022/10/18 11:20:01;;;;;;;4.55;0.60;;;18.20;99.90;;;;;;5009858;28;20505;-73
2022/10/18 11:22:35;;;;;;;2.45;0.60;;;18.00;99.90;;;;;;5022902;28;20041;-77
2022/10/18 11:25:04;;;;;;;4.95;0.50;;;17.90;99.90;;;;;;5019785;28;20029;-77
2022/10/18 11:27:37;;;;;;;1.50;0.30;;;17.80;99.90;;;;;;5013462;28;20034;-75
2022/10/18 11:30:06;;;;;;;3.90;0.40;;;17.60;99.90;;;;;;5030253;28;20036;-76
2022/10/18 11:32:41;;;;;;;2.05;0.40;;;17.60;99.90;;;;;;5029261;28;20467;-76
2022/10/18 11:35:21;;;;;;;1.67;0.25;;;17.50;99.90;;;;;;5023076;28;20030;-76
2022/10/18 11:38:05;;;;;;;3.65;0.60;;;17.50;99.90;;;;;;5029860;28;20753;-76
2022/10/18 11:40:43;;;;;;;3.75;0.68;;;17.60;99.90;;;;;;5030008;28;20487;-75
2022/10/18 11:43:41;;;;;;;3.65;0.40;;;17.50;99.90;;;;;;5029970;28;20040;-77
2022/10/18 11:46:43;;;;;;;1.60;0.30;;;17.60;99.90;;;;;;5027671;28;20033;-79
2022/10/18 11:49:51;;;;;;;2.20;0.70;;;18.00;99.90;;;;;;5006141;28;20054;-75
2022/10/18 11:52:43;;;;;;;5.60;0.40;;;19.10;99.90;;;;;;5025171;28;20053;-75
2022/10/18 11:55:28;;;;;;;0.82;0.20;;;20.40;99.90;;;;;;5020026;28;20395;-77
2022/10/18 11:58:10;;;;;;;3.47;0.52;;;21.50;99.90;;;;;;5023523;28;20046;-76
2022/10/18 12:00:38;;;;;;;;;;;22.50;99.90;;;;;;5024285;28;20032;-75
2022/10/18 12:03:17;;;;;;;5.63;0.90;;;23.40;99.90;;;;;;5025659;28;19913;-75
2022/10/18 12:05:46;;;;;;;3.42;0.45;;;24.00;99.90;;;;;;5026366;28;20032;-75
2022/10/18 12:08:43;;;;;;;3.90;0.50;;;24.50;99.90;;;;;;5024400;28;20052;-74
2022/10/18 12:11:18;;;;;;;3.10;0.50;;;25.00;99.90;;;;;;4986230;28;20042;-74
2022/10/18 12:14:03;;;;;;;4.55;0.40;;;25.30;99.90;;;;;;5022041;28;20026;-74
2022/10/18 12:16:42;;;;;;;4.53;1.30;;;25.80;99.90;;;;;;5027551;28;20042;-74
2022/10/18 12:19:19;;;;;;;2.50;0.73;;;26.30;99.90;;;;;;5020156;28;20030;-74
2022/10/18 12:21:46;;;;;;;2.25;0.60;;;26.60;99.90;;;;;;5026215;28;20026;-75
2022/10/18 12:24:20;;;;;;;5.40;0.73;;;26.80;99.70;;;;;;5020828;28;20048;-76
2022/10/18 12:26:52;;;;;;;3.45;0.50;;;27.40;97.80;;;;;;5025704;28;20041;-74
2022/10/18 12:29:37;;;;;;;2.38;0.50;;;27.50;94.40;;;;;;5020171;28;20046;-74
2022/10/18 12:32:18;;;;;;;2.85;0.63;;;27.50;93.80;;;;;;5020066;28;20028;-75
2022/10/18 12:34:55;;;;;;;4.20;0.63;;;27.70;93.40;;;;;;5018543;28;20041;-75
2022/10/18 12:37:51;;;;;;;2.70;0.50;;;27.80;93.00;;;;;;5028998;28;20038;-74
2022/10/18 12:40:39;;;;;;;3.70;0.93;;;27.40;91.50;;;;;;5024863;28;20037;-74
2022/10/18 12:43:23;;;;;;;3.80;0.65;;;26.00;92.30;;;;;;5024188;28;20404;-75
2022/10/18 12:45:58;;;;;;;6.13;1.40;;;24.70;93.60;;;;;;5036615;28;20041;-76
2022/10/18 12:48:44;;;;;;;4.32;0.80;;;23.50;94.20;;;;;;5037224;28;20064;-73
2022/10/18 12:51:15;;;;;;;3.38;0.55;;;22.50;95.60;;;;;;5023600;28;20038;-75
2022/10/18 12:54:11;;;;;;;4.87;1.10;;;21.70;96.60;;;;;;5037472;28;20033;-76
2022/10/18 12:56:42;;;;;;;4.70;0.95;;;21.00;97.50;;;;;;5020255;28;20412;-74
2022/10/18 12:59:14;;;;;;;2.97;0.70;;;20.50;98.40;;;;;;5020954;28;20030;-74
2022/10/18 13:01:50;;;;;;;4.47;0.50;;;20.00;99.30;;;;;;5025890;28;20033;-74